createdAt,value
2019-03-04T00:01:03.129Z,7.20
2019-03-04T00:03:32.939Z,7.40
2019-03-04T00:06:02.750Z,7.30
2019-03-04T00:08:33.016Z,7.40
2019-03-04T00:11:02.841Z,7.03
2019-03-04T00:13:32.635Z,6.73
2019-03-04T00:16:02.461Z,6.80
2019-03-04T00:18:32.155Z,7.30
2019-03-04T00:21:02.155Z,6.97
2019-03-04T00:23:31.883Z,7.43
2019-03-04T00:26:01.673Z,7.77
2019-03-04T00:28:31.389Z,6.00
2019-03-04T00:31:01.221Z,6.73
2019-03-04T00:33:30.935Z,7.13
2019-03-04T00:36:00.695Z,6.50
2019-03-04T00:38:30.436Z,6.60
2019-03-04T00:41:00.151Z,6.83
2019-03-04T00:43:29.171Z,7.20
2019-03-04T00:45:59.280Z,6.70
2019-03-04T00:48:28.983Z,7.23
2019-03-04T00:50:58.727Z,6.33
2019-03-04T00:53:28.472Z,5.97
2019-03-04T00:55:58.242Z,6.47
2019-03-04T00:58:28.043Z,6.13
2019-03-04T01:00:57.858Z,6.80
2019-03-04T01:03:27.743Z,6.07
2019-03-04T01:05:57.486Z,6.23
2019-03-04T01:08:27.249Z,6.27
2019-03-04T01:10:57.017Z,6.40
2019-03-04T01:13:27.197Z,6.37
2019-03-04T01:15:56.989Z,7.13
2019-03-04T01:18:26.767Z,6.90
2019-03-04T01:20:56.483Z,7.10
2019-03-04T01:23:26.270Z,7.10
2019-03-04T01:25:56.103Z,6.37
2019-03-04T01:28:25.985Z,7.07
2019-03-04T01:30:55.768Z,7.23
2019-03-04T01:33:25.506Z,7.30
2019-03-04T01:35:54.537Z,6.80
2019-03-04T01:38:24.302Z,7.10
2019-03-04T01:40:54.201Z,6.20
2019-03-04T01:43:23.952Z,6.37
2019-03-04T01:45:53.631Z,6.10
2019-03-04T01:48:23.515Z,5.70
2019-03-04T01:50:53.207Z,5.93
2019-03-04T01:53:22.946Z,6.53
2019-03-04T01:55:52.699Z,5.63
2019-03-04T01:58:22.403Z,5.93
2019-03-04T02:00:52.384Z,5.53
2019-03-04T02:03:22.119Z,4.80
2019-03-04T02:05:51.861Z,5.73
2019-03-04T02:08:20.882Z,5.40
2019-03-04T02:10:50.611Z,5.70
2019-03-04T02:13:20.433Z,4.83
2019-03-04T02:15:50.121Z,5.60
2019-03-04T02:18:19.851Z,4.87
2019-03-04T02:20:49.506Z,4.50
2019-03-04T02:23:19.324Z,4.23
2019-03-04T02:26:26.848Z,5.00
2019-03-04T02:28:56.949Z,4.27
2019-03-04T02:31:26.708Z,4.60
2019-03-04T02:33:55.770Z,4.77
2019-03-04T02:36:25.531Z,4.93
2019-03-04T02:38:55.193Z,4.40
2019-03-04T02:41:25.020Z,5.00
2019-03-04T02:43:54.756Z,4.30
2019-03-04T02:46:24.985Z,4.40
2019-03-04T02:48:56.062Z,5.30
2019-03-04T02:51:25.797Z,5.17
2019-03-04T02:53:55.480Z,4.73
2019-03-04T02:56:24.508Z,4.40
2019-03-04T02:58:54.338Z,4.67
2019-03-04T03:01:24.100Z,4.73
2019-03-04T03:03:53.912Z,4.53
2019-03-04T03:06:23.766Z,5.10
2019-03-04T03:08:53.521Z,4.70
2019-03-04T03:11:23.314Z,5.13
2019-03-04T03:13:52.998Z,4.73
2019-03-04T03:16:22.881Z,4.47
2019-03-04T03:18:52.593Z,4.73
2019-03-04T03:21:22.330Z,4.90
2019-03-04T03:23:52.142Z,4.60
2019-03-04T03:26:21.946Z,4.63
2019-03-04T03:28:51.655Z,5.30
2019-03-04T03:31:21.461Z,4.97
2019-03-04T03:33:51.158Z,4.50
2019-03-04T03:36:20.901Z,4.43
2019-03-04T03:38:50.663Z,4.90
2019-03-04T03:41:20.391Z,5.00
2019-03-04T03:43:50.235Z,5.00
2019-03-04T03:46:19.981Z,4.73
2019-03-04T03:48:49.681Z,4.50
2019-03-04T03:51:19.453Z,4.60
2019-03-04T03:53:49.175Z,3.83
2019-03-04T03:56:18.929Z,4.43
2019-03-04T03:58:48.688Z,4.27
2019-03-04T04:01:18.793Z,5.10
2019-03-04T04:03:48.472Z,4.10
2019-03-04T04:06:18.222Z,4.83
2019-03-04T04:08:47.896Z,4.63
2019-03-04T04:11:17.625Z,4.67
2019-03-04T04:13:47.366Z,4.70
2019-03-04T04:16:17.098Z,4.30
2019-03-04T04:18:46.799Z,4.87
2019-03-04T04:21:16.596Z,4.97
2019-03-04T04:23:46.423Z,4.47
2019-03-04T04:26:22.223Z,4.30
2019-03-04T04:29:12.510Z,4.27
2019-03-04T04:31:42.123Z,4.87
2019-03-04T04:34:11.925Z,4.27
2019-03-04T04:36:41.628Z,4.03
2019-03-04T04:39:11.365Z,3.80
2019-03-04T04:41:41.174Z,4.33
2019-03-04T04:44:10.867Z,3.50
2019-03-04T04:46:51.862Z,4.17
2019-03-04T04:49:21.884Z,3.80
2019-03-04T04:51:52.112Z,3.87
2019-03-04T04:54:22.118Z,4.27
2019-03-04T04:56:51.921Z,4.13
2019-03-04T04:59:21.622Z,3.87
2019-03-04T05:01:51.377Z,3.97
2019-03-04T05:04:21.182Z,4.20
2019-03-04T05:06:50.930Z,3.80
2019-03-04T05:09:20.602Z,3.67
2019-03-04T05:11:50.434Z,4.00
2019-03-04T05:14:20.130Z,3.40
2019-03-04T05:16:49.879Z,3.87
2019-03-04T05:19:19.594Z,3.80
2019-03-04T05:21:51.295Z,3.73
2019-03-04T05:24:21.000Z,3.37
2019-03-04T05:26:50.751Z,3.40
2019-03-04T05:29:20.518Z,3.00
2019-03-04T05:31:50.472Z,4.00
2019-03-04T05:34:20.303Z,4.17
2019-03-04T05:36:50.101Z,3.80
2019-03-04T05:39:19.946Z,3.57
2019-03-04T05:41:50.721Z,3.30
2019-03-04T05:44:20.479Z,3.80
2019-03-04T05:46:50.176Z,3.20
2019-03-04T05:49:19.239Z,4.07
2019-03-04T05:51:49.006Z,3.80
2019-03-04T05:54:18.741Z,3.40
2019-03-04T05:56:48.423Z,3.10
2019-03-04T05:59:19.969Z,3.23
2019-03-04T06:02:02.487Z,3.13
2019-03-04T06:04:31.560Z,3.50
2019-03-04T06:07:07.444Z,3.23
2019-03-04T06:09:37.317Z,3.53
2019-03-04T06:12:07.316Z,3.37
2019-03-04T06:14:37.167Z,3.00
2019-03-04T06:17:06.973Z,3.10
2019-03-04T06:19:36.708Z,2.97
2019-03-04T06:22:05.839Z,3.47
2019-03-04T06:24:36.690Z,3.60
2019-03-04T06:27:06.469Z,2.97
2019-03-04T06:29:36.284Z,3.60
2019-03-04T06:32:05.314Z,3.13
2019-03-04T06:34:35.001Z,3.13
2019-03-04T06:37:04.720Z,3.00
2019-03-04T06:39:34.421Z,3.77
2019-03-04T06:42:04.448Z,3.23
2019-03-04T06:44:34.237Z,3.50
2019-03-04T06:47:03.957Z,3.20
2019-03-04T06:49:33.751Z,3.10
2019-03-04T06:52:03.595Z,2.97
2019-03-04T06:55:08.834Z,2.97
2019-03-04T06:57:42.486Z,2.93
2019-03-04T07:00:40.451Z,2.53
2019-03-04T07:03:20.418Z,2.70
2019-03-04T07:05:51.419Z,2.97
2019-03-04T07:09:09.038Z,3.20
2019-03-04T07:11:39.953Z,3.00
2019-03-04T07:14:09.667Z,2.60
2019-03-04T07:16:39.448Z,3.67
2019-03-04T07:19:32.091Z,3.53
2019-03-04T07:22:01.842Z,3.20
2019-03-04T07:24:31.640Z,3.13
2019-03-04T07:27:01.436Z,3.30
2019-03-04T07:29:31.240Z,3.40
2019-03-04T07:32:01.263Z,3.23
2019-03-04T07:34:33.615Z,3.23
2019-03-04T07:37:02.820Z,3.33
2019-03-04T07:39:32.566Z,3.13
2019-03-04T07:42:02.284Z,2.97
2019-03-04T07:44:32.106Z,3.23
2019-03-04T07:47:01.796Z,3.03
2019-03-04T07:49:31.700Z,3.10
2019-03-04T07:52:01.459Z,3.37
2019-03-04T07:54:31.246Z,3.43
2019-03-04T07:57:01.069Z,4.30
2019-03-04T07:59:30.868Z,3.67
2019-03-04T08:02:00.636Z,2.97
2019-03-04T08:04:30.369Z,3.60
2019-03-04T08:07:41.183Z,3.17
2019-03-04T08:10:44.544Z,3.20
2019-03-04T08:13:22.412Z,2.73
2019-03-04T08:15:54.857Z,3.17
2019-03-04T08:18:27.126Z,3.23
2019-03-04T08:20:57.010Z,3.00
2019-03-04T08:23:26.739Z,2.93
2019-03-04T08:25:56.613Z,3.60
2019-03-04T08:28:26.449Z,3.17
2019-03-04T08:30:56.201Z,3.37
2019-03-04T08:33:26.028Z,3.07
2019-03-04T08:35:55.831Z,3.33
2019-03-04T08:38:25.672Z,3.50
2019-03-04T08:40:55.529Z,3.33
2019-03-04T08:43:25.322Z,3.47
2019-03-04T08:45:56.462Z,3.20
2019-03-04T08:48:26.288Z,3.50
2019-03-04T08:50:56.040Z,3.60
2019-03-04T08:53:25.759Z,3.03
2019-03-04T08:55:55.543Z,3.30
2019-03-04T08:58:25.389Z,3.40
2019-03-04T09:00:55.185Z,3.17
2019-03-04T09:03:24.968Z,3.20
2019-03-04T09:05:54.714Z,3.20
2019-03-04T09:08:24.490Z,3.17
2019-03-04T09:10:54.286Z,3.47
2019-03-04T09:13:24.025Z,3.20
2019-03-04T09:15:53.812Z,3.20
2019-03-04T09:18:23.591Z,2.97
2019-03-04T09:20:53.289Z,3.20
2019-03-04T09:23:23.258Z,3.30
2019-03-04T09:26:00.327Z,3.17
2019-03-04T09:28:30.070Z,3.03
2019-03-04T09:30:59.800Z,3.10
2019-03-04T09:33:29.591Z,3.10
2019-03-04T09:35:59.331Z,3.30
2019-03-04T09:38:29.140Z,3.67
2019-03-04T09:40:58.219Z,2.90
2019-03-04T09:43:27.950Z,3.20
2019-03-04T09:45:58.121Z,2.87
2019-03-04T09:48:27.931Z,3.20
2019-03-04T09:50:58.008Z,3.27
2019-03-04T09:53:28.128Z,3.27
2019-03-04T09:55:58.448Z,3.07
2019-03-04T09:58:28.161Z,3.53
2019-03-04T10:01:30.722Z,3.43
2019-03-04T10:04:12.793Z,3.10
2019-03-04T10:07:18.798Z,3.23
2019-03-04T10:10:32.771Z,3.20
2019-03-04T10:13:41.341Z,3.53
2019-03-04T10:16:21.273Z,3.90
2019-03-04T10:19:29.127Z,4.30
2019-03-04T10:22:18.041Z,4.13
2019-03-04T10:25:18.528Z,4.00
2019-03-04T10:27:59.097Z,3.90
2019-03-04T10:31:00.441Z,3.33
2019-03-04T10:33:41.542Z,3.27
2019-03-04T10:36:24.086Z,3.00
2019-03-04T10:39:38.714Z,2.97
2019-03-04T10:43:03.985Z,2.87
2019-03-04T10:46:10.173Z,2.73
2019-03-04T10:48:40.428Z,2.50
2019-03-04T10:51:10.180Z,2.97
2019-03-04T10:53:41.043Z,2.87
2019-03-04T10:56:10.773Z,3.20
2019-03-04T10:58:42.516Z,3.03
2019-03-04T11:01:14.016Z,3.40
2019-03-04T11:03:43.882Z,3.47
2019-03-04T11:06:14.312Z,3.30
2019-03-04T11:08:45.263Z,2.80
2019-03-04T11:11:18.673Z,2.83
2019-03-04T11:13:48.561Z,2.90
2019-03-04T11:16:18.431Z,2.90
2019-03-04T11:18:49.706Z,3.50
2019-03-04T11:21:20.679Z,2.80
2019-03-04T11:23:50.400Z,2.93
2019-03-04T11:26:21.343Z,2.80
2019-03-04T11:28:51.989Z,2.60
2019-03-04T11:31:24.815Z,2.97
2019-03-04T11:33:54.583Z,2.90
2019-03-04T11:36:24.325Z,3.20
2019-03-04T11:38:59.048Z,2.83
2019-03-04T11:41:28.869Z,2.80
2019-03-04T11:43:58.603Z,3.00
2019-03-04T11:46:28.459Z,3.23
2019-03-04T11:48:58.230Z,2.80
2019-03-04T11:51:28.317Z,2.63
2019-03-04T11:53:58.267Z,2.90
2019-03-04T11:56:28.062Z,2.87
2019-03-04T11:58:57.877Z,3.00
2019-03-04T12:01:34.410Z,3.23
2019-03-04T12:04:04.812Z,3.90
2019-03-04T12:06:35.365Z,2.97
2019-03-04T12:09:11.334Z,3.73
2019-03-04T12:11:44.680Z,3.87
2019-03-04T12:14:17.005Z,3.43
2019-03-04T12:16:48.740Z,3.60
2019-03-04T12:19:18.494Z,3.80
2019-03-04T12:21:51.690Z,3.30
2019-03-04T12:24:21.430Z,3.57
2019-03-04T12:26:57.160Z,3.50
2019-03-04T12:29:28.579Z,3.23
2019-03-04T12:32:03.693Z,3.77
2019-03-04T12:34:33.794Z,3.43
2019-03-04T12:37:02.864Z,3.40
2019-03-04T12:39:32.145Z,3.93
2019-03-04T12:42:02.499Z,3.40
2019-03-04T12:52:57.091Z,3.47
2019-03-04T12:55:27.644Z,3.30
2019-03-04T12:57:59.219Z,3.10
2019-03-04T13:00:33.538Z,2.80
2019-03-04T13:03:03.423Z,2.90
2019-03-04T13:05:34.156Z,3.40
2019-03-04T13:08:03.199Z,2.53
2019-03-04T13:10:32.967Z,2.60
2019-03-04T13:13:03.831Z,2.50
2019-03-04T13:15:33.698Z,2.57
2019-03-04T13:18:03.562Z,2.83
2019-03-04T13:20:33.271Z,2.90
2019-03-04T13:23:03.073Z,3.00
2019-03-04T13:25:33.847Z,2.60
2019-03-04T13:28:08.142Z,3.10
2019-03-04T13:30:34.828Z,2.90
2019-03-04T13:33:04.766Z,3.00
2019-03-04T13:35:34.672Z,2.80
2019-03-04T13:38:04.527Z,3.07
2019-03-04T13:40:34.461Z,2.40
2019-03-04T13:43:04.246Z,2.90
2019-03-04T13:45:33.990Z,3.37
2019-03-04T13:48:03.879Z,3.07
2019-03-04T13:50:33.979Z,2.77
2019-03-04T13:53:03.856Z,2.83
2019-03-04T13:55:33.401Z,2.83
2019-03-04T13:58:03.531Z,3.03
2019-03-04T14:00:34.024Z,3.00
2019-03-04T14:03:03.793Z,2.70
2019-03-04T14:05:35.049Z,3.40
2019-03-04T14:08:10.367Z,2.70
2019-03-04T14:10:39.549Z,2.60
2019-03-04T14:13:09.473Z,2.90
2019-03-04T14:15:40.868Z,2.50
2019-03-04T14:18:10.834Z,2.37
2019-03-04T14:20:40.622Z,2.60
2019-03-04T14:23:10.475Z,2.40
2019-03-04T14:25:40.673Z,2.93
2019-03-04T14:28:11.255Z,2.60
2019-03-04T14:30:41.176Z,2.60
2019-03-04T14:33:10.985Z,2.67
2019-03-04T14:35:40.721Z,3.10
2019-03-04T14:38:09.833Z,2.90
2019-03-04T14:40:39.581Z,3.30
2019-03-04T14:43:09.208Z,2.83
2019-03-04T14:45:39.058Z,3.27
2019-03-04T14:48:10.477Z,3.63
2019-03-04T14:50:42.781Z,3.40
2019-03-04T14:53:12.550Z,2.60
2019-03-04T14:55:42.234Z,3.10
2019-03-04T14:58:11.974Z,2.90
2019-03-04T15:00:42.491Z,3.27
2019-03-04T15:03:19.492Z,2.67
2019-03-04T15:05:42.979Z,2.63
2019-03-04T15:08:12.223Z,3.08
2019-03-04T15:10:41.946Z,3.23
2019-03-04T15:13:12.029Z,2.77
2019-03-04T15:15:41.781Z,2.50
2019-03-04T15:18:11.536Z,3.00
2019-03-04T15:20:41.286Z,2.37
2019-03-04T15:23:11.339Z,2.50
2019-03-04T15:25:41.228Z,1.70
2019-03-04T15:28:15.812Z,1.33
2019-03-04T15:30:45.454Z,1.20
2019-03-04T15:33:18.488Z,1.60
2019-03-04T15:35:46.105Z,1.17
2019-03-04T15:38:15.225Z,1.40
2019-03-04T15:40:44.993Z,1.17
2019-03-04T15:43:14.810Z,1.50
2019-03-04T15:45:47.593Z,2.23
2019-03-04T15:48:18.048Z,2.80
2019-03-04T15:50:47.786Z,2.60
2019-03-04T15:53:17.936Z,2.33
2019-03-04T15:55:47.752Z,2.50
2019-03-04T15:58:16.957Z,2.20
2019-03-04T16:00:46.837Z,1.93
2019-03-04T16:03:16.589Z,1.90
2019-03-04T16:05:46.472Z,2.90
2019-03-04T16:08:15.688Z,2.50
2019-03-04T16:10:45.500Z,2.17
2019-03-04T16:13:14.534Z,1.93
2019-03-04T16:15:44.145Z,1.60
2019-03-04T16:18:14.021Z,1.93
2019-03-04T16:20:45.638Z,1.90
2019-03-04T16:23:16.567Z,1.50
2019-03-04T16:25:45.682Z,1.77
2019-03-04T16:28:17.950Z,2.00
2019-03-04T16:30:56.254Z,2.30
2019-03-04T16:33:26.766Z,2.10
2019-03-04T16:35:56.563Z,2.60
2019-03-04T16:38:26.406Z,2.97
2019-03-04T16:40:56.160Z,2.87
2019-03-04T16:43:25.923Z,2.97
2019-03-04T16:45:55.791Z,3.10
2019-03-04T16:48:25.573Z,2.73
2019-03-04T16:50:55.491Z,2.80
2019-03-04T16:53:25.942Z,2.80
2019-03-04T16:55:55.736Z,2.30
2019-03-04T16:58:25.820Z,2.17
2019-03-04T17:00:56.159Z,2.50
2019-03-04T17:03:25.946Z,2.20
2019-03-04T17:05:56.143Z,1.97
2019-03-04T17:08:26.383Z,2.37
2019-03-04T17:10:57.736Z,2.33
2019-03-04T17:13:28.056Z,2.63
2019-03-04T17:15:57.984Z,2.40
2019-03-04T17:18:30.846Z,2.17
2019-03-04T17:21:00.649Z,2.17
2019-03-04T17:23:29.910Z,2.00
2019-03-04T17:26:01.091Z,2.60
2019-03-04T17:28:32.212Z,2.50
2019-03-04T17:31:02.015Z,2.87
2019-03-04T17:33:31.835Z,2.53
2019-03-04T17:36:00.955Z,3.43
2019-03-04T17:38:30.796Z,2.97
2019-03-04T17:41:01.063Z,3.40
2019-03-04T17:43:31.745Z,3.07
2019-03-04T17:46:02.214Z,3.00
2019-03-04T17:48:32.136Z,3.50
2019-03-04T17:51:02.335Z,3.00
2019-03-04T17:53:32.209Z,3.67
2019-03-04T17:56:02.012Z,3.30
2019-03-04T17:58:31.146Z,2.27
2019-03-04T18:01:00.996Z,2.60
2019-03-04T18:03:33.485Z,2.33
2019-03-04T18:06:05.834Z,2.50
2019-03-04T18:08:34.924Z,1.97
2019-03-04T18:11:04.897Z,2.70
2019-03-04T18:13:36.100Z,3.20
2019-03-04T18:16:05.366Z,2.70
2019-03-04T18:18:35.195Z,3.30
2019-03-04T18:21:05.109Z,3.23
2019-03-04T18:23:34.957Z,4.07
2019-03-04T18:26:11.871Z,3.17
2019-03-04T18:29:01.031Z,3.10
2019-03-04T18:31:33.218Z,2.60
2019-03-04T18:34:41.282Z,1.97
2019-03-04T18:37:30.156Z,2.30
2019-03-04T18:40:58.763Z,2.47
2019-03-04T18:44:07.965Z,1.90
2019-03-04T18:46:59.068Z,1.80
2019-03-04T18:49:28.875Z,2.13
2019-03-04T18:52:06.242Z,1.90
2019-03-04T18:54:40.745Z,2.30
2019-03-04T18:57:10.633Z,2.03
2019-03-04T18:59:40.451Z,2.50
2019-03-04T19:02:09.610Z,1.70
2019-03-04T19:04:39.410Z,1.20
2019-03-04T19:07:09.283Z,1.50
2019-03-04T19:09:38.415Z,1.67
2019-03-04T19:12:08.291Z,1.60
2019-03-04T19:14:38.127Z,1.90
2019-03-04T19:17:08.034Z,1.50
2019-03-04T19:19:39.401Z,2.07
2019-03-04T19:22:16.377Z,2.03
2019-03-04T19:24:48.781Z,1.30
2019-03-04T19:27:18.646Z,1.83
2019-03-04T19:29:48.637Z,1.30
2019-03-04T19:32:19.268Z,1.43
2019-03-04T19:34:49.053Z,1.43
2019-03-04T19:37:18.781Z,1.27
2019-03-04T19:39:52.949Z,1.40
2019-03-04T19:42:22.798Z,1.43
2019-03-04T19:44:52.811Z,1.43
2019-03-04T19:47:41.170Z,1.97
2019-03-04T19:50:19.261Z,1.43
2019-03-04T19:52:53.805Z,0.70
2019-03-04T19:55:51.508Z,1.37
2019-03-04T19:58:22.768Z,1.77
2019-03-04T20:00:51.894Z,1.73
2019-03-04T20:03:21.882Z,1.23
2019-03-04T20:05:51.690Z,1.73
2019-03-04T20:08:21.703Z,0.90
2019-03-04T20:10:54.750Z,0.40
2019-03-04T20:13:25.344Z,0.50
2019-03-04T20:15:56.151Z,0.50
2019-03-04T20:18:25.953Z,0.50
2019-03-04T20:20:55.716Z,0.23
2019-03-04T20:23:28.611Z,0.33
2019-03-04T20:25:57.688Z,0.57
2019-03-04T20:28:27.477Z,0.90
2019-03-04T20:31:00.444Z,0.70
2019-03-04T20:33:33.756Z,0.97
2019-03-04T20:36:03.838Z,0.93
2019-03-04T20:38:36.313Z,0.90
2019-03-04T20:41:05.352Z,1.17
2019-03-04T20:43:35.317Z,1.10
2019-03-04T20:46:04.721Z,1.10
2019-03-04T20:48:34.585Z,0.60
2019-03-04T20:51:04.452Z,1.10
2019-03-04T20:53:34.361Z,1.13
2019-03-04T20:56:04.287Z,1.33
2019-03-04T20:58:34.435Z,1.10
2019-03-04T21:01:04.411Z,1.30
2019-03-04T21:03:35.086Z,0.90
2019-03-04T21:06:04.379Z,0.87
2019-03-04T21:08:34.161Z,0.80
2019-03-04T21:11:04.422Z,0.80
2019-03-04T21:13:35.900Z,1.00
2019-03-04T21:16:04.800Z,0.83
2019-03-04T21:18:35.353Z,1.20
2019-03-04T21:21:06.676Z,1.10
2019-03-04T21:23:36.470Z,1.23
2019-03-04T21:26:23.407Z,1.07
2019-03-04T21:29:30.502Z,1.60
2019-03-04T21:32:30.456Z,1.60
2019-03-04T21:35:12.480Z,1.70
2019-03-04T21:37:42.655Z,1.80
2019-03-04T21:40:22.888Z,1.80
2019-03-04T21:43:01.045Z,1.77
2019-03-04T21:46:10.384Z,1.60
2019-03-04T21:48:49.816Z,1.97
2019-03-04T21:51:42.530Z,2.40
2019-03-04T21:54:12.303Z,1.73
2019-03-04T21:57:16.313Z,2.10
2019-03-04T21:59:45.530Z,2.20
2019-03-04T22:02:40.452Z,2.20
2019-03-04T22:05:12.902Z,2.60
2019-03-04T22:07:42.802Z,2.57
2019-03-04T22:10:13.621Z,2.57
2019-03-04T22:12:45.006Z,2.60
2019-03-04T22:15:15.060Z,2.07
2019-03-04T22:17:44.913Z,2.50
2019-03-04T22:20:14.378Z,2.43
2019-03-04T22:22:44.103Z,2.60
2019-03-04T22:25:14.091Z,2.43
2019-03-04T22:27:43.798Z,3.10
2019-03-04T22:30:15.242Z,2.70
2019-03-04T22:32:44.474Z,2.43
2019-03-04T22:35:17.019Z,2.80
2019-03-04T22:37:46.516Z,2.73
2019-03-04T22:40:17.676Z,2.93
2019-03-04T22:42:47.364Z,3.13
2019-03-04T22:45:18.211Z,2.77
2019-03-04T22:47:48.619Z,2.33
2019-03-04T22:50:18.960Z,2.43
2019-03-04T22:52:48.745Z,2.23
2019-03-04T22:55:27.493Z,2.40
2019-03-04T22:57:57.245Z,2.63
2019-03-04T23:01:17.161Z,2.13
2019-03-04T23:03:48.337Z,2.40
2019-03-04T23:06:21.624Z,2.47
2019-03-04T23:08:50.612Z,2.60
2019-03-04T23:11:22.184Z,2.67
2019-03-04T23:14:05.519Z,2.10
2019-03-04T23:16:35.199Z,3.00
2019-03-04T23:19:05.006Z,2.83
2019-03-04T23:21:34.695Z,2.67
2019-03-04T23:24:05.994Z,2.70
2019-03-04T23:26:35.750Z,2.60
2019-03-04T23:29:05.441Z,2.77
2019-03-04T23:31:35.361Z,3.03
2019-03-04T23:34:05.351Z,2.50
2019-03-04T23:36:35.188Z,2.40
2019-03-04T23:39:07.338Z,2.40
2019-03-04T23:41:37.109Z,2.67
2019-03-04T23:44:07.031Z,2.50
2019-03-04T23:46:36.673Z,2.50
2019-03-04T23:49:06.383Z,2.43
2019-03-04T23:51:36.120Z,2.30
2019-03-04T23:54:05.829Z,2.17
2019-03-04T23:56:35.522Z,1.50
2019-03-04T23:59:05.305Z,2.07
